createdAt,value
2023-01-07T00:01:25.853Z,13.20
2023-01-07T00:04:15.849Z,12.45
2023-01-07T00:07:03.483Z,12.55
2023-01-07T00:09:51.185Z,27.98
2023-01-07T00:12:38.811Z,12.90
2023-01-07T00:15:26.725Z,17.25
2023-01-07T00:18:14.414Z,21.58
2023-01-07T00:21:05.067Z,16.23
2023-01-07T00:23:57.642Z,20.30
2023-01-07T00:26:45.462Z,18.98
2023-01-07T00:29:33.105Z,33.67
2023-01-07T00:32:21.182Z,17.48
2023-01-07T00:35:23.380Z,48.55
2023-01-07T00:38:12.173Z,64.57
2023-01-07T00:40:59.882Z,46.67
2023-01-07T00:43:50.294Z,29.52
2023-01-07T00:46:38.227Z,27.38
2023-01-07T00:49:26.808Z,23.33
2023-01-07T00:52:14.587Z,10.00
2023-01-07T00:55:02.334Z,15.07
2023-01-07T00:57:50.044Z,18.45
2023-01-07T01:00:38.257Z,20.73
2023-01-07T01:03:27.929Z,7.95
2023-01-07T01:06:17.243Z,3.50
2023-01-07T01:09:04.824Z,15.65
2023-01-07T01:11:52.571Z,9.73
2023-01-07T01:14:40.161Z,12.90
2023-01-07T01:17:28.296Z,12.18
2023-01-07T01:20:16.309Z,6.72
2023-01-07T01:23:04.512Z,13.98
2023-01-07T01:25:52.269Z,9.32
2023-01-07T01:28:40.160Z,7.85
2023-01-07T01:31:29.131Z,18.10
2023-01-07T01:34:17.116Z,11.55
2023-01-07T01:37:05.109Z,12.07
2023-01-07T01:39:52.882Z,13.45
2023-01-07T01:42:40.654Z,40.35
2023-01-07T01:45:30.673Z,25.42
2023-01-07T01:48:21.043Z,28.05
2023-01-07T01:51:11.333Z,18.67
2023-01-07T01:53:59.257Z,18.45
2023-01-07T01:56:52.616Z,21.27
2023-01-07T01:59:44.403Z,22.92
2023-01-07T02:02:40.044Z,34.60
2023-01-07T02:05:33.297Z,39.53
2023-01-07T02:08:23.506Z,50.63
2023-01-07T02:11:32.904Z,38.03
2023-01-07T02:14:40.898Z,39.35
2023-01-07T02:17:41.670Z,43.42
2023-01-07T02:20:48.162Z,40.42
2023-01-07T02:23:46.339Z,38.72
2023-01-07T02:26:58.455Z,47.15
2023-01-07T02:30:00.310Z,36.78
2023-01-07T02:33:06.591Z,34.38
2023-01-07T02:36:18.817Z,32.45
2023-01-07T02:39:46.868Z,21.60
2023-01-07T02:43:03.060Z,21.25
2023-01-07T02:46:03.712Z,28.75
2023-01-07T02:48:51.896Z,23.27
2023-01-07T02:51:41.550Z,17.42
2023-01-07T02:54:30.186Z,17.52
2023-01-07T02:57:24.765Z,19.63
2023-01-07T03:00:33.225Z,25.08
2023-01-07T03:04:03.500Z,21.90
2023-01-07T03:07:00.321Z,22.20
2023-01-07T03:10:06.409Z,21.52
2023-01-07T03:13:07.526Z,25.00
2023-01-07T03:16:03.580Z,23.15
2023-01-07T03:19:06.943Z,34.47
2023-01-07T03:21:56.759Z,25.60
2023-01-07T03:24:46.855Z,30.13
2023-01-07T03:27:36.979Z,22.83
2023-01-07T03:30:26.145Z,21.27
2023-01-07T03:33:20.413Z,20.25
2023-01-07T03:36:11.867Z,21.52
2023-01-07T03:39:01.935Z,28.20
2023-01-07T03:42:08.951Z,20.77
2023-01-07T03:44:58.467Z,25.88
2023-01-07T03:47:50.292Z,18.10
2023-01-07T03:50:38.974Z,22.90
2023-01-07T03:53:27.452Z,23.67
2023-01-07T03:56:15.238Z,22.73
2023-01-07T03:59:06.049Z,29.10
2023-01-07T04:01:54.232Z,27.75
2023-01-07T04:04:50.782Z,28.23
2023-01-07T04:07:39.625Z,27.23
2023-01-07T04:10:27.343Z,29.35
2023-01-07T04:13:15.231Z,43.70
2023-01-07T04:16:14.848Z,73.88
2023-01-07T04:19:14.124Z,47.45
2023-01-07T04:22:01.829Z,43.80
2023-01-07T04:24:51.655Z,45.75
2023-01-07T04:27:40.235Z,54.92
2023-01-07T04:30:28.192Z,38.63
2023-01-07T04:33:15.961Z,40.58
2023-01-07T04:36:05.123Z,34.92
2023-01-07T04:38:52.932Z,37.92
2023-01-07T04:41:40.717Z,29.67
2023-01-07T04:44:29.244Z,30.60
2023-01-07T04:47:18.060Z,31.45
2023-01-07T04:50:06.606Z,32.97
2023-01-07T04:52:56.280Z,39.17
2023-01-07T04:55:46.226Z,41.55
2023-01-07T04:58:35.204Z,29.48
2023-01-07T05:01:23.367Z,31.85
2023-01-07T05:04:11.299Z,26.98
2023-01-07T05:06:59.013Z,27.85
2023-01-07T05:09:47.549Z,28.48
2023-01-07T05:12:37.008Z,34.30
2023-01-07T05:15:26.151Z,78.63
2023-01-07T05:18:15.639Z,40.83
2023-01-07T05:21:04.006Z,24.35
2023-01-07T05:23:52.155Z,23.38
2023-01-07T05:26:40.503Z,33.83
2023-01-07T05:29:29.172Z,34.55
2023-01-07T05:32:28.749Z,37.80
2023-01-07T05:35:26.261Z,36.05
2023-01-07T05:38:13.954Z,40.58
2023-01-07T05:41:01.677Z,37.30
2023-01-07T05:43:49.773Z,46.17
2023-01-07T05:46:39.681Z,46.70
2023-01-07T05:49:27.441Z,37.42
2023-01-07T05:52:15.083Z,30.98
2023-01-07T05:55:02.804Z,30.52
2023-01-07T05:57:50.521Z,33.53
2023-01-07T06:00:39.057Z,50.67
2023-01-07T06:03:26.778Z,48.85
2023-01-07T06:06:14.549Z,40.00
2023-01-07T06:09:02.241Z,31.85
2023-01-07T06:11:50.045Z,29.67
2023-01-07T06:14:37.718Z,27.92
2023-01-07T06:17:25.553Z,34.70
2023-01-07T06:20:15.245Z,54.05
2023-01-07T06:23:05.561Z,47.78
2023-01-07T06:25:53.200Z,49.85
2023-01-07T06:28:40.897Z,42.58
2023-01-07T06:31:28.527Z,48.55
2023-01-07T06:34:18.872Z,65.57
2023-01-07T06:37:07.035Z,58.83
2023-01-07T06:39:58.662Z,42.38
2023-01-07T06:42:46.484Z,36.83
2023-01-07T06:45:34.277Z,47.45
2023-01-07T06:54:43.352Z,26.98
2023-01-07T06:57:45.235Z,20.00
2023-01-07T07:00:37.192Z,24.52
2023-01-07T07:03:25.183Z,31.67
2023-01-07T07:06:12.966Z,26.50
2023-01-07T07:09:01.303Z,24.75
2023-01-07T07:11:52.266Z,21.20
2023-01-07T07:14:40.271Z,47.13
2023-01-07T07:17:28.124Z,57.97
2023-01-07T07:20:16.116Z,51.10
2023-01-07T07:23:04.365Z,50.05
2023-01-07T07:25:52.189Z,62.17
2023-01-07T07:28:43.033Z,57.75
2023-01-07T07:31:31.016Z,46.78
2023-01-07T07:34:18.792Z,48.28
2023-01-07T07:37:06.599Z,53.35
2023-01-07T07:39:54.486Z,55.63
2023-01-07T07:43:10.637Z,49.22
2023-01-07T07:45:52.555Z,43.88
2023-01-07T07:48:40.582Z,48.15
2023-01-07T07:51:28.409Z,57.85
2023-01-07T07:54:16.158Z,42.88
2023-01-07T07:57:04.170Z,57.10
2023-01-07T07:59:52.083Z,50.40
2023-01-07T08:02:39.751Z,32.80
2023-01-07T08:05:28.468Z,22.20
2023-01-07T08:08:16.039Z,19.77
2023-01-07T08:11:04.737Z,18.65
2023-01-07T08:13:52.341Z,15.25
2023-01-07T08:16:43.111Z,8.90
2023-01-07T08:19:33.420Z,4.50
2023-01-07T08:22:21.113Z,5.10
2023-01-07T08:25:09.117Z,7.00
2023-01-07T08:27:57.850Z,5.07
2023-01-07T08:30:45.716Z,9.30
2023-01-07T08:33:38.817Z,6.43
2023-01-07T08:36:27.580Z,9.73
2023-01-07T08:39:15.703Z,11.15
2023-01-07T08:42:03.597Z,15.70
2023-01-07T08:44:51.372Z,14.98
2023-01-07T08:47:42.080Z,9.40
2023-01-07T08:50:37.506Z,16.27
2023-01-07T08:53:35.108Z,12.57
2023-01-07T08:56:54.356Z,9.82
2023-01-07T08:59:48.744Z,17.45
2023-01-07T09:06:49.328Z,19.75
2023-01-07T09:09:43.483Z,11.18
2023-01-07T09:12:36.635Z,10.27
2023-01-07T09:15:26.888Z,10.68
2023-01-07T09:18:14.769Z,6.90
2023-01-07T09:21:02.787Z,2.80
2023-01-07T09:23:50.900Z,4.55
2023-01-07T09:26:38.746Z,5.97
2023-01-07T09:29:28.991Z,4.93
2023-01-07T09:32:19.128Z,3.72
2023-01-07T09:35:09.594Z,4.40
2023-01-07T09:37:57.398Z,3.97
2023-01-07T09:40:46.485Z,2.67
2023-01-07T09:46:55.396Z,12.55
2023-01-07T09:49:48.025Z,5.10
2023-01-07T09:52:54.150Z,5.10
2023-01-07T09:56:11.318Z,4.47
2023-01-07T09:58:52.441Z,5.65
2023-01-07T10:02:17.819Z,5.03
2023-01-07T10:05:17.738Z,7.50
2023-01-07T10:08:36.134Z,5.65
2023-01-07T10:12:00.700Z,5.40
2023-01-07T10:15:05.973Z,8.82
2023-01-07T10:18:10.579Z,9.63
2023-01-07T10:21:37.150Z,7.22
2023-01-07T10:24:32.604Z,6.80
2023-01-07T10:27:30.699Z,9.63
2023-01-07T10:30:30.783Z,6.28
2023-01-07T10:33:29.317Z,5.55
2023-01-07T10:36:58.015Z,7.32
2023-01-07T10:40:07.298Z,10.23
2023-01-07T10:43:19.664Z,6.22
2023-01-07T10:46:41.599Z,6.68
2023-01-07T10:49:57.343Z,9.02
2023-01-07T10:53:56.390Z,3.75
2023-01-07T10:56:51.191Z,19.35
2023-01-07T10:59:39.540Z,14.70
2023-01-07T11:02:27.868Z,3.97
2023-01-07T11:05:18.588Z,4.35
2023-01-07T11:08:16.559Z,3.95
2023-01-07T11:11:07.821Z,6.25
2023-01-07T11:14:03.325Z,3.00
2023-01-07T11:16:57.134Z,3.30
2023-01-07T11:19:54.075Z,3.40
2023-01-07T11:22:44.359Z,4.03
2023-01-07T11:25:32.154Z,2.00
2023-01-07T11:28:27.414Z,3.72
2023-01-07T11:31:22.226Z,1.98
2023-01-07T11:34:43.289Z,2.15
2023-01-07T11:37:58.428Z,3.30
2023-01-07T11:41:00.731Z,5.00
2023-01-07T11:43:53.287Z,2.40
2023-01-07T11:49:32.714Z,1.48
2023-01-07T11:52:26.189Z,3.65
2023-01-07T11:55:20.470Z,5.43
2023-01-07T11:58:28.809Z,3.65
2023-01-07T12:01:24.464Z,4.50
2023-01-07T12:04:34.972Z,1.80
2023-01-07T12:07:25.118Z,1.52
2023-01-07T12:10:35.688Z,4.72
2023-01-07T12:13:29.012Z,4.30
2023-01-07T12:16:27.655Z,1.85
2023-01-07T12:19:38.487Z,4.97
2023-01-07T12:22:48.836Z,5.10
2023-01-07T12:26:16.625Z,2.10
2023-01-07T12:29:16.220Z,1.77
2023-01-07T12:33:00.269Z,3.97
2023-01-07T12:36:21.731Z,3.75
2023-01-07T12:39:52.400Z,3.53
2023-01-07T12:42:59.131Z,2.65
2023-01-07T12:46:12.046Z,12.23
2023-01-07T12:49:16.739Z,5.95
2023-01-07T12:52:27.448Z,5.10
2023-01-07T12:55:35.296Z,6.68
2023-01-07T12:59:09.947Z,2.45
2023-01-07T13:02:42.293Z,1.90
2023-01-07T13:05:38.818Z,1.60
2023-01-07T13:08:43.208Z,3.08
2023-01-07T13:11:54.549Z,2.55
2023-01-07T13:15:12.267Z,2.28
2023-01-07T13:18:14.980Z,3.13
2023-01-07T13:21:17.253Z,3.83
2023-01-07T13:24:55.765Z,7.60
2023-01-07T13:28:03.484Z,4.57
2023-01-07T13:31:02.914Z,1.98
2023-01-07T13:34:21.998Z,2.38
2023-01-07T13:37:20.834Z,42.10
2023-01-07T13:40:45.638Z,2.75
2023-01-07T13:44:11.146Z,5.07
2023-01-07T13:47:03.168Z,5.70
2023-01-07T13:49:59.735Z,3.45
2023-01-07T13:53:00.634Z,17.25
2023-01-07T13:55:49.468Z,6.18
2023-01-07T13:58:55.847Z,10.98
2023-01-07T14:02:28.449Z,4.90
2023-01-07T14:05:20.159Z,3.90
2023-01-07T14:08:08.011Z,3.42
2023-01-07T14:10:56.554Z,3.10
2023-01-07T14:14:13.594Z,6.53
2023-01-07T14:17:07.314Z,4.30
2023-01-07T14:20:15.342Z,4.47
2023-01-07T14:23:33.593Z,3.08
2023-01-07T14:26:39.776Z,5.63
2023-01-07T14:29:48.303Z,1.83
2023-01-07T14:32:42.366Z,8.02
2023-01-07T14:35:56.339Z,1.33
2023-01-07T14:38:45.615Z,2.85
2023-01-07T14:41:56.372Z,3.20
2023-01-07T14:44:52.834Z,3.88
2023-01-07T14:47:47.292Z,10.15
2023-01-07T14:50:44.326Z,5.95
2023-01-07T14:54:09.953Z,7.50
2023-01-07T14:57:52.968Z,7.88
2023-01-07T15:00:54.736Z,6.05
2023-01-07T15:04:15.458Z,3.10
2023-01-07T15:07:05.651Z,12.73
2023-01-07T15:10:21.458Z,12.00
2023-01-07T15:13:40.192Z,41.00
2023-01-07T15:16:30.979Z,16.95
2023-01-07T15:19:25.264Z,21.42
2023-01-07T15:22:38.196Z,38.15
2023-01-07T15:25:39.952Z,38.20
2023-01-07T15:28:43.951Z,41.97
2023-01-07T15:32:02.298Z,67.28
2023-01-07T15:34:53.052Z,84.00
2023-01-07T15:37:50.907Z,56.47
2023-01-07T15:40:43.260Z,72.53
2023-01-07T15:43:32.260Z,79.47
2023-01-07T15:46:43.010Z,71.95
2023-01-07T15:49:45.891Z,136.57
2023-01-07T15:52:33.930Z,94.05
2023-01-07T15:55:28.722Z,79.75
2023-01-07T15:58:41.013Z,74.68
2023-01-07T16:01:29.473Z,90.65
2023-01-07T16:04:32.751Z,88.63
2023-01-07T16:07:31.165Z,79.07
2023-01-07T16:10:28.399Z,79.05
2023-01-07T16:13:19.086Z,115.32
2023-01-07T16:16:07.014Z,105.10
2023-01-07T16:19:02.691Z,179.30
2023-01-07T16:21:55.557Z,148.68
2023-01-07T16:24:52.596Z,115.82
2023-01-07T16:27:42.256Z,105.43
2023-01-07T16:30:30.393Z,122.15
2023-01-07T16:33:25.808Z,110.75
2023-01-07T16:36:20.996Z,132.18
2023-01-07T16:39:22.255Z,127.35
2023-01-07T16:42:23.450Z,144.43
2023-01-07T16:45:29.677Z,141.75
2023-01-07T16:48:24.197Z,123.28
2023-01-07T16:51:54.879Z,152.90
2023-01-07T16:54:46.981Z,172.23
2023-01-07T16:57:40.049Z,182.15
2023-01-07T17:00:28.091Z,163.98
2023-01-07T17:03:19.012Z,152.48
2023-01-07T17:06:08.200Z,175.27
2023-01-07T17:09:00.172Z,192.63
2023-01-07T17:11:50.522Z,209.13
2023-01-07T17:14:41.112Z,187.15
2023-01-07T17:17:34.400Z,152.27
2023-01-07T17:20:22.799Z,160.23
2023-01-07T17:23:25.715Z,134.10
2023-01-07T17:26:23.469Z,136.40
2023-01-07T17:29:16.753Z,115.53
2023-01-07T17:32:05.148Z,128.48
2023-01-07T17:34:52.929Z,371.08
2023-01-07T17:37:40.558Z,140.32
2023-01-07T17:40:28.274Z,93.28
2023-01-07T17:43:34.081Z,92.68
2023-01-07T17:46:27.659Z,100.57
2023-01-07T17:49:20.720Z,85.97
2023-01-07T17:52:10.404Z,90.57
2023-01-07T17:54:57.979Z,119.40
2023-01-07T17:57:48.871Z,112.90
2023-01-07T18:00:36.950Z,89.40
2023-01-07T18:03:25.337Z,99.10
2023-01-07T18:06:24.764Z,110.32
2023-01-07T18:09:13.875Z,126.47
2023-01-07T18:12:20.236Z,123.93
2023-01-07T18:15:20.496Z,129.55
2023-01-07T18:18:08.071Z,120.43
2023-01-07T18:20:56.569Z,134.45
2023-01-07T18:23:46.220Z,161.80
2023-01-07T18:26:33.911Z,144.80
2023-01-07T18:29:21.638Z,138.57
2023-01-07T18:32:09.931Z,149.65
2023-01-07T18:34:57.659Z,169.30
2023-01-07T18:37:48.477Z,172.73
2023-01-07T18:40:37.612Z,172.55
2023-01-07T18:43:25.586Z,144.02
2023-01-07T18:46:14.694Z,129.55
2023-01-07T18:49:03.299Z,124.45
2023-01-07T18:51:51.036Z,126.30
2023-01-07T18:54:41.072Z,112.82
2023-01-07T18:57:28.802Z,126.70
2023-01-07T19:00:16.986Z,130.02
2023-01-07T19:03:04.776Z,105.72
2023-01-07T19:05:52.435Z,101.25
2023-01-07T19:08:40.609Z,90.97
2023-01-07T19:11:28.359Z,83.82
2023-01-07T19:14:16.323Z,84.60
2023-01-07T19:17:08.408Z,108.68
2023-01-07T19:19:56.159Z,101.47
2023-01-07T19:22:43.936Z,107.43
2023-01-07T19:25:31.999Z,124.57
2023-01-07T19:28:19.662Z,128.15
2023-01-07T19:31:08.722Z,150.52
2023-01-07T19:33:56.871Z,110.07
2023-01-07T19:36:47.496Z,112.25
2023-01-07T19:39:35.426Z,108.60
2023-01-07T19:42:23.257Z,118.60
2023-01-07T19:45:11.307Z,116.15
2023-01-07T19:47:58.960Z,118.28
2023-01-07T19:50:54.245Z,107.57
2023-01-07T19:53:42.990Z,107.05
2023-01-07T19:56:31.211Z,112.13
2023-01-07T19:59:19.018Z,103.95
2023-01-07T20:02:26.743Z,87.72
2023-01-07T20:05:26.629Z,112.03
2023-01-07T20:08:20.781Z,69.00
2023-01-07T20:11:08.555Z,103.60
2023-01-07T20:13:56.217Z,74.22
2023-01-07T20:16:46.594Z,101.35
2023-01-07T20:19:34.425Z,123.55
2023-01-07T20:22:22.044Z,94.18
2023-01-07T20:25:10.132Z,105.90
2023-01-07T20:27:57.771Z,104.35
2023-01-07T20:30:46.220Z,90.35
2023-01-07T20:33:34.803Z,102.22
2023-01-07T20:36:25.997Z,88.75
2023-01-07T20:39:13.717Z,88.28
2023-01-07T20:42:01.302Z,85.40
2023-01-07T20:44:51.801Z,117.03
2023-01-07T20:47:39.540Z,145.85
2023-01-07T20:50:27.804Z,156.35
2023-01-07T20:53:15.631Z,146.88
2023-01-07T20:56:04.259Z,168.35
2023-01-07T20:58:52.100Z,239.73
2023-01-07T21:01:40.643Z,158.18
2023-01-07T21:04:31.990Z,135.40
2023-01-07T21:07:28.501Z,143.27
2023-01-07T21:10:18.347Z,144.77
2023-01-07T21:13:07.844Z,133.63
2023-01-07T21:16:03.281Z,128.52
2023-01-07T21:18:51.072Z,123.50
2023-01-07T21:21:38.746Z,123.65
2023-01-07T21:24:26.505Z,105.32
2023-01-07T21:27:14.166Z,116.93
2023-01-07T21:30:04.984Z,120.07
2023-01-07T21:32:53.511Z,113.25
2023-01-07T21:45:46.712Z,74.32
2023-01-07T21:48:39.661Z,87.35
2023-01-07T21:51:28.389Z,72.15
2023-01-07T21:54:16.155Z,66.30
2023-01-07T21:57:04.329Z,87.40
2023-01-07T21:59:52.175Z,73.07
2023-01-07T22:02:39.945Z,74.78
2023-01-07T22:05:27.739Z,56.78
2023-01-07T22:08:15.451Z,77.13
2023-01-07T22:11:03.252Z,71.45
2023-01-07T22:13:56.154Z,62.80
2023-01-07T22:16:49.030Z,75.28
2023-01-07T22:19:36.958Z,62.80
2023-01-07T22:22:24.697Z,60.08
2023-01-07T22:25:12.345Z,68.07
2023-01-07T22:28:02.924Z,51.35
2023-01-07T22:30:55.395Z,58.50
2023-01-07T22:33:43.021Z,44.10
2023-01-07T22:37:05.577Z,37.50
2023-01-07T22:42:59.007Z,36.13
2023-01-07T22:45:55.799Z,35.50
2023-01-07T22:48:43.540Z,27.20
2023-01-07T22:51:38.591Z,37.17
2023-01-07T22:54:28.029Z,28.60
2023-01-07T22:57:16.202Z,37.42
2023-01-07T23:00:08.020Z,43.55
2023-01-07T23:02:55.793Z,45.88
2023-01-07T23:05:43.725Z,41.83
2023-01-07T23:08:31.495Z,38.40
2023-01-07T23:11:37.577Z,41.92
2023-01-07T23:14:26.706Z,40.85
2023-01-07T23:17:14.443Z,28.40
2023-01-07T23:20:02.220Z,30.98
2023-01-07T23:22:50.010Z,25.00
2023-01-07T23:25:38.298Z,30.17
2023-01-07T23:28:26.016Z,35.80
2023-01-07T23:31:13.720Z,37.25
2023-01-07T23:34:02.122Z,38.13
2023-01-07T23:36:49.810Z,30.95
2023-01-07T23:39:37.482Z,40.35
2023-01-07T23:42:25.192Z,36.75
2023-01-07T23:45:12.913Z,44.80
2023-01-07T23:48:00.574Z,32.70
2023-01-07T23:50:48.222Z,26.38
2023-01-07T23:53:36.616Z,44.30
2023-01-07T23:56:24.302Z,35.47
2023-01-07T23:59:13.085Z,28.27
